createdAt,value
2023-01-27T00:00:28.692Z,14.70
2023-01-27T00:02:58.461Z,14.13
2023-01-27T00:05:26.741Z,15.67
2023-01-27T00:07:58.784Z,15.77
2023-01-27T00:10:30.452Z,15.37
2023-01-27T00:13:18.353Z,14.83
2023-01-27T00:15:46.747Z,15.20
2023-01-27T00:18:16.783Z,15.40
2023-01-27T00:21:02.010Z,15.50
2023-01-27T00:23:49.896Z,14.77
2023-01-27T00:26:20.133Z,14.93
2023-01-27T00:28:49.329Z,14.50
2023-01-27T00:31:36.214Z,12.57
2023-01-27T00:34:10.421Z,12.63
2023-01-27T00:36:40.450Z,13.70
2023-01-27T00:39:10.162Z,13.17
2023-01-27T00:41:40.945Z,12.30
2023-01-27T00:44:14.018Z,11.70
2023-01-27T00:46:42.363Z,11.10
2023-01-27T00:49:13.629Z,11.10
2023-01-27T00:51:41.955Z,10.80
2023-01-27T00:54:10.400Z,11.23
2023-01-27T00:56:39.040Z,9.73
2023-01-27T00:59:08.111Z,10.43
2023-01-27T01:01:36.767Z,10.27
2023-01-27T01:04:09.486Z,10.63
2023-01-27T01:06:39.442Z,10.30
2023-01-27T01:09:07.701Z,9.93
2023-01-27T01:11:35.728Z,10.40
2023-01-27T01:14:04.029Z,10.17
2023-01-27T01:16:32.421Z,10.20
2023-01-27T01:19:00.721Z,10.27
2023-01-27T01:21:29.321Z,9.50
2023-01-27T01:24:00.231Z,10.27
2023-01-27T01:26:28.684Z,10.00
2023-01-27T01:28:57.216Z,9.40
2023-01-27T01:31:25.360Z,9.43
2023-01-27T01:33:53.632Z,9.60
2023-01-27T01:36:22.882Z,9.10
2023-01-27T01:38:55.813Z,8.97
2023-01-27T01:41:26.471Z,9.97
2023-01-27T01:43:55.439Z,8.80
2023-01-27T01:46:24.132Z,9.10
2023-01-27T01:48:56.546Z,9.00
2023-01-27T01:51:33.694Z,8.60
2023-01-27T01:54:07.357Z,8.50
2023-01-27T01:56:49.302Z,8.70
2023-01-27T01:59:28.540Z,7.73
2023-01-27T02:02:00.252Z,8.30
2023-01-27T02:04:36.357Z,8.53
2023-01-27T02:07:10.735Z,8.17
2023-01-27T02:09:40.658Z,8.07
2023-01-27T02:12:11.964Z,7.60
2023-01-27T02:14:44.051Z,7.77
2023-01-27T02:17:14.808Z,8.07
2023-01-27T02:19:51.416Z,8.33
2023-01-27T02:22:26.890Z,7.33
2023-01-27T02:25:04.053Z,8.00
2023-01-27T02:27:33.784Z,8.00
2023-01-27T02:30:01.952Z,7.20
2023-01-27T02:32:30.219Z,7.53
2023-01-27T02:34:58.958Z,6.83
2023-01-27T02:37:27.803Z,8.07
2023-01-27T02:40:00.724Z,7.43
2023-01-27T02:42:28.968Z,7.57
2023-01-27T02:44:58.884Z,7.13
2023-01-27T02:47:27.955Z,7.63
2023-01-27T02:49:56.429Z,7.60
2023-01-27T02:52:24.631Z,7.50
2023-01-27T02:54:53.009Z,7.57
2023-01-27T02:57:21.391Z,8.13
2023-01-27T02:59:49.751Z,8.77
2023-01-27T03:02:23.136Z,8.20
2023-01-27T03:04:51.635Z,8.03
2023-01-27T03:07:19.982Z,8.13
2023-01-27T03:09:48.233Z,8.70
2023-01-27T03:12:22.745Z,9.00
2023-01-27T03:15:09.452Z,9.07
2023-01-27T03:17:57.519Z,8.80
2023-01-27T03:20:25.770Z,9.50
2023-01-27T03:22:53.981Z,9.43
2023-01-27T03:25:22.426Z,9.33
2023-01-27T03:27:50.637Z,10.27
2023-01-27T03:30:19.128Z,10.17
2023-01-27T03:32:48.924Z,11.00
2023-01-27T03:35:18.095Z,10.83
2023-01-27T03:38:03.973Z,11.27
2023-01-27T03:40:51.809Z,11.87
2023-01-27T03:43:38.508Z,11.60
2023-01-27T03:46:22.564Z,11.13
2023-01-27T03:48:55.375Z,11.60
2023-01-27T03:51:28.053Z,11.60
2023-01-27T03:53:56.491Z,10.27
2023-01-27T03:56:26.396Z,12.07
2023-01-27T03:58:54.868Z,10.60
2023-01-27T04:01:24.991Z,10.40
2023-01-27T04:04:12.505Z,9.50
2023-01-27T04:06:56.587Z,11.03
2023-01-27T04:09:26.701Z,10.70
2023-01-27T04:11:56.905Z,10.30
2023-01-27T04:14:29.175Z,10.70
2023-01-27T04:16:59.904Z,10.23
2023-01-27T04:19:30.084Z,11.00
2023-01-27T04:22:00.744Z,10.80
2023-01-27T04:24:29.214Z,10.23
2023-01-27T04:26:59.097Z,10.13
2023-01-27T04:29:32.043Z,10.10
2023-01-27T04:32:00.495Z,9.63
2023-01-27T04:34:30.589Z,10.27
2023-01-27T04:36:58.918Z,9.67
2023-01-27T04:39:27.763Z,9.77
2023-01-27T04:41:57.377Z,9.80
2023-01-27T04:44:26.343Z,9.83
2023-01-27T04:46:55.578Z,9.43
2023-01-27T04:49:27.137Z,8.87
2023-01-27T04:51:57.251Z,9.70
2023-01-27T04:54:25.967Z,9.53
2023-01-27T04:56:59.408Z,9.13
2023-01-27T04:59:28.293Z,9.53
2023-01-27T05:01:57.078Z,9.50
2023-01-27T05:04:26.683Z,9.25
2023-01-27T05:06:56.822Z,9.80
2023-01-27T05:09:25.262Z,9.90
2023-01-27T05:11:54.517Z,10.87
2023-01-27T05:14:24.041Z,9.87
2023-01-27T05:16:52.671Z,10.93
2023-01-27T05:19:21.055Z,10.37
2023-01-27T05:21:49.706Z,10.07
2023-01-27T05:24:19.833Z,11.97
2023-01-27T05:26:48.199Z,15.70
2023-01-27T05:29:16.293Z,19.07
2023-01-27T05:31:45.290Z,18.47
2023-01-27T05:34:14.040Z,14.80
2023-01-27T05:36:42.523Z,10.47
2023-01-27T05:39:12.617Z,10.53
2023-01-27T05:41:45.865Z,10.83
2023-01-27T05:44:15.758Z,15.97
2023-01-27T05:46:43.951Z,55.93
2023-01-27T05:49:12.308Z,21.03
2023-01-27T05:51:41.337Z,12.00
2023-01-27T05:54:10.306Z,10.70
2023-01-27T05:56:40.893Z,9.07
2023-01-27T05:59:11.761Z,7.40
2023-01-27T06:01:40.279Z,12.73
2023-01-27T06:04:11.598Z,10.70
2023-01-27T06:06:40.279Z,10.20
2023-01-27T06:09:08.467Z,7.83
2023-01-27T06:11:36.552Z,7.57
2023-01-27T06:14:05.005Z,10.63
2023-01-27T06:16:35.263Z,7.07
2023-01-27T06:19:03.741Z,8.20
2023-01-27T06:21:32.900Z,7.73
2023-01-27T06:24:01.616Z,9.23
2023-01-27T06:26:29.788Z,11.50
2023-01-27T06:28:58.893Z,7.77
2023-01-27T06:31:27.718Z,8.53
2023-01-27T06:33:57.583Z,10.17
2023-01-27T06:36:25.844Z,10.37
2023-01-27T06:38:53.914Z,16.43
2023-01-27T06:41:22.449Z,15.00
2023-01-27T06:43:50.578Z,8.87
2023-01-27T06:46:18.692Z,9.60
2023-01-27T06:48:46.938Z,13.00
2023-01-27T06:51:16.745Z,8.23
2023-01-27T06:53:45.321Z,7.70
2023-01-27T06:56:15.682Z,6.87
2023-01-27T06:58:44.975Z,14.90
2023-01-27T07:01:15.174Z,11.27
2023-01-27T07:03:46.600Z,10.93
2023-01-27T07:06:19.169Z,11.17
2023-01-27T07:08:50.613Z,9.30
2023-01-27T07:11:19.978Z,8.10
2023-01-27T07:13:48.402Z,7.20
2023-01-27T07:16:16.851Z,14.67
2023-01-27T07:18:46.742Z,17.43
2023-01-27T07:21:17.163Z,11.00
2023-01-27T07:23:45.320Z,7.00
2023-01-27T07:26:24.570Z,33.23
2023-01-27T07:28:53.978Z,14.60
2023-01-27T07:31:24.120Z,7.57
2023-01-27T07:33:55.145Z,9.93
2023-01-27T07:36:26.465Z,8.10
2023-01-27T07:38:54.662Z,9.80
2023-01-27T07:41:25.029Z,7.50
2023-01-27T07:43:53.265Z,8.80
2023-01-27T07:46:21.724Z,8.57
2023-01-27T07:48:50.216Z,8.03
2023-01-27T07:51:18.316Z,8.90
2023-01-27T07:53:48.310Z,8.33
2023-01-27T07:56:16.475Z,7.70
2023-01-27T07:58:44.941Z,8.10
2023-01-27T08:01:16.792Z,7.60
2023-01-27T08:03:44.992Z,7.40
2023-01-27T08:06:16.385Z,8.50
2023-01-27T08:08:44.978Z,9.63
2023-01-27T08:11:16.337Z,6.50
2023-01-27T08:13:44.795Z,7.47
2023-01-27T08:16:16.222Z,6.20
2023-01-27T08:18:45.160Z,8.07
2023-01-27T08:21:15.441Z,7.00
2023-01-27T08:23:43.777Z,5.37
2023-01-27T08:26:15.066Z,5.77
2023-01-27T08:28:45.194Z,5.67
2023-01-27T08:31:16.052Z,6.03
2023-01-27T08:33:45.536Z,6.20
2023-01-27T08:36:15.837Z,6.50
2023-01-27T08:38:46.691Z,5.80
2023-01-27T08:41:17.723Z,5.47
2023-01-27T08:43:49.463Z,6.47
2023-01-27T08:46:18.430Z,6.30
2023-01-27T08:48:47.191Z,6.70
2023-01-27T08:51:15.753Z,6.00
2023-01-27T08:53:44.836Z,7.47
2023-01-27T08:56:14.690Z,7.00
2023-01-27T08:58:43.031Z,6.57
2023-01-27T09:01:13.919Z,7.13
2023-01-27T09:03:42.307Z,6.23
2023-01-27T09:06:12.751Z,6.07
2023-01-27T09:08:41.365Z,6.20
2023-01-27T09:11:11.776Z,6.00
2023-01-27T09:13:39.840Z,6.50
2023-01-27T09:16:08.740Z,6.13
2023-01-27T09:18:38.556Z,9.40
2023-01-27T09:21:08.004Z,8.23
2023-01-27T09:23:36.240Z,8.20
2023-01-27T09:26:04.759Z,9.13
2023-01-27T09:28:33.121Z,8.30
2023-01-27T09:31:02.099Z,6.83
2023-01-27T09:33:30.463Z,5.80
2023-01-27T09:36:08.159Z,8.97
2023-01-27T09:38:41.847Z,6.60
2023-01-27T09:41:30.220Z,10.47
2023-01-27T09:44:17.357Z,4.50
2023-01-27T09:47:04.070Z,4.50
2023-01-27T09:49:48.295Z,6.10
2023-01-27T09:52:46.822Z,4.00
2023-01-27T09:55:23.517Z,5.37
2023-01-27T09:58:02.977Z,5.07
2023-01-27T10:00:53.709Z,6.77
2023-01-27T10:03:43.663Z,5.20
2023-01-27T10:06:43.477Z,9.43
2023-01-27T10:09:40.656Z,5.77
2023-01-27T10:12:24.794Z,8.97
2023-01-27T10:15:09.265Z,6.47
2023-01-27T10:17:50.290Z,8.20
2023-01-27T10:20:31.180Z,5.90
2023-01-27T10:23:10.806Z,4.40
2023-01-27T10:25:54.669Z,5.10
2023-01-27T10:28:26.294Z,4.70
2023-01-27T10:31:03.711Z,4.37
2023-01-27T10:33:47.803Z,4.27
2023-01-27T10:36:26.505Z,3.60
2023-01-27T10:39:10.427Z,3.07
2023-01-27T10:41:50.882Z,3.10
2023-01-27T10:44:34.955Z,3.60
2023-01-27T10:47:13.521Z,3.47
2023-01-27T10:49:49.639Z,2.60
2023-01-27T10:52:21.971Z,3.03
2023-01-27T10:54:57.293Z,3.40
2023-01-27T10:57:32.616Z,3.67
2023-01-27T11:00:41.885Z,2.93
2023-01-27T11:03:02.375Z,3.30
2023-01-27T11:05:35.575Z,3.50
2023-01-27T11:08:09.747Z,3.53
2023-01-27T11:11:03.717Z,4.00
2023-01-27T11:13:34.697Z,2.80
2023-01-27T11:16:06.178Z,2.33
2023-01-27T11:18:38.959Z,2.37
2023-01-27T11:21:11.031Z,2.07
2023-01-27T11:23:43.462Z,2.97
2023-01-27T11:26:27.683Z,2.73
2023-01-27T11:29:20.480Z,16.03
2023-01-27T11:31:56.614Z,9.73
2023-01-27T11:34:32.903Z,5.00
2023-01-27T11:37:02.774Z,3.00
2023-01-27T11:39:34.162Z,2.10
2023-01-27T11:42:02.636Z,2.57
2023-01-27T11:44:35.504Z,2.10
2023-01-27T11:47:08.189Z,2.50
2023-01-27T11:49:42.613Z,2.27
2023-01-27T11:52:14.233Z,2.43
2023-01-27T11:54:47.002Z,4.13
2023-01-27T11:57:21.677Z,2.10
2023-01-27T11:59:58.586Z,1.83
2023-01-27T12:02:35.655Z,3.83
2023-01-27T12:05:10.102Z,21.07
2023-01-27T12:07:47.600Z,9.27
2023-01-27T12:10:32.079Z,9.67
2023-01-27T12:13:03.060Z,3.43
2023-01-27T12:15:33.494Z,3.50
2023-01-27T12:18:04.937Z,2.27
2023-01-27T12:20:38.648Z,5.80
2023-01-27T12:23:21.770Z,2.37
2023-01-27T12:25:56.189Z,6.83
2023-01-27T12:28:35.162Z,1.57
2023-01-27T12:31:11.875Z,3.40
2023-01-27T12:33:45.545Z,3.30
2023-01-27T12:36:18.380Z,2.00
2023-01-27T12:38:52.343Z,5.57
2023-01-27T12:41:26.691Z,2.50
2023-01-27T12:43:57.144Z,2.70
2023-01-27T12:46:28.369Z,2.30
2023-01-27T12:49:07.233Z,1.87
2023-01-27T12:51:42.258Z,1.63
2023-01-27T12:54:22.000Z,1.40
2023-01-27T12:56:52.029Z,1.40
2023-01-27T12:59:21.647Z,9.77
2023-01-27T13:02:03.710Z,8.73
2023-01-27T13:04:32.396Z,5.30
2023-01-27T13:07:09.794Z,2.27
2023-01-27T13:09:47.421Z,1.70
2023-01-27T13:12:21.836Z,1.47
2023-01-27T13:14:54.396Z,2.40
2023-01-27T13:17:43.682Z,2.57
2023-01-27T13:20:23.355Z,2.20
2023-01-27T13:22:55.092Z,8.80
2023-01-27T13:25:26.166Z,9.13
2023-01-27T13:28:01.004Z,4.27
2023-01-27T13:30:35.689Z,4.17
2023-01-27T13:33:22.187Z,4.20
2023-01-27T13:35:59.246Z,4.47
2023-01-27T13:38:36.615Z,2.27
2023-01-27T13:41:15.430Z,5.20
2023-01-27T13:43:59.026Z,6.90
2023-01-27T13:46:30.811Z,2.40
2023-01-27T13:49:13.875Z,2.80
2023-01-27T13:51:42.161Z,2.20
2023-01-27T13:54:15.675Z,2.60
2023-01-27T13:56:56.348Z,3.50
2023-01-27T13:59:39.512Z,8.07
2023-01-27T14:02:32.382Z,3.73
2023-01-27T14:05:21.307Z,4.23
2023-01-27T14:07:59.686Z,6.90
2023-01-27T14:10:36.557Z,3.77
2023-01-27T14:13:31.290Z,8.70
2023-01-27T14:16:07.669Z,5.00
2023-01-27T14:18:39.283Z,4.70
2023-01-27T14:21:25.009Z,2.70
2023-01-27T14:24:08.549Z,2.77
2023-01-27T14:26:48.337Z,2.60
2023-01-27T14:29:29.697Z,2.83
2023-01-27T14:32:04.467Z,2.40
2023-01-27T14:34:42.132Z,2.83
2023-01-27T14:37:25.162Z,3.07
2023-01-27T14:40:09.385Z,3.13
2023-01-27T14:42:43.561Z,3.30
2023-01-27T14:45:21.867Z,5.00
2023-01-27T14:47:58.528Z,2.70
2023-01-27T14:50:35.010Z,3.43
2023-01-27T14:53:24.450Z,3.37
2023-01-27T14:55:59.951Z,4.70
2023-01-27T14:58:56.172Z,3.60
2023-01-27T15:01:36.188Z,3.70
2023-01-27T15:04:40.522Z,3.57
2023-01-27T15:07:16.346Z,5.60
2023-01-27T15:10:25.051Z,4.97
2023-01-27T15:13:18.710Z,4.80
2023-01-27T15:16:21.045Z,3.10
2023-01-27T15:19:08.576Z,4.17
2023-01-27T15:22:31.171Z,3.00
2023-01-27T15:25:18.333Z,3.80
2023-01-27T15:27:59.972Z,7.43
2023-01-27T15:30:30.277Z,5.20
2023-01-27T15:32:58.956Z,7.47
2023-01-27T15:35:41.336Z,3.43
2023-01-27T15:38:34.715Z,2.33
2023-01-27T15:41:13.865Z,2.80
2023-01-27T15:44:05.069Z,3.07
2023-01-27T15:46:36.329Z,3.20
2023-01-27T15:49:06.050Z,4.17
2023-01-27T15:51:37.894Z,3.43
2023-01-27T15:54:07.420Z,4.20
2023-01-27T15:56:44.270Z,1.93
2023-01-27T15:59:17.463Z,2.80
2023-01-27T16:01:49.017Z,3.97
2023-01-27T16:04:23.369Z,2.20
2023-01-27T16:07:02.215Z,14.10
2023-01-27T16:09:43.540Z,11.17
2023-01-27T16:12:30.459Z,44.83
2023-01-27T16:15:33.668Z,19.43
2023-01-27T16:18:26.182Z,11.27
2023-01-27T16:21:02.304Z,12.77
2023-01-27T16:23:44.247Z,23.70
2023-01-27T16:26:29.190Z,11.50
2023-01-27T16:29:07.642Z,12.07
2023-01-27T16:31:40.500Z,5.93
2023-01-27T16:34:19.174Z,3.30
2023-01-27T16:36:48.308Z,3.73
2023-01-27T16:39:32.126Z,2.87
2023-01-27T16:42:01.197Z,3.53
2023-01-27T16:44:39.916Z,3.83
2023-01-27T16:47:22.934Z,4.57
2023-01-27T16:49:56.655Z,4.13
2023-01-27T16:52:41.877Z,4.37
2023-01-27T16:55:23.018Z,3.40
2023-01-27T16:57:54.255Z,3.00
2023-01-27T17:00:25.174Z,3.33
2023-01-27T17:02:57.435Z,3.37
2023-01-27T17:05:25.977Z,3.17
2023-01-27T17:08:04.547Z,4.33
2023-01-27T17:10:35.040Z,3.80
2023-01-27T17:13:04.557Z,3.73
2023-01-27T17:15:38.102Z,3.60
2023-01-27T17:18:10.555Z,3.67
2023-01-27T17:20:44.717Z,3.93
2023-01-27T17:23:24.187Z,3.47
2023-01-27T17:25:57.912Z,5.60
2023-01-27T17:28:28.975Z,3.53
2023-01-27T17:31:07.981Z,4.10
2023-01-27T17:33:39.416Z,4.03
2023-01-27T17:36:12.317Z,4.90
2023-01-27T17:38:48.091Z,7.23
2023-01-27T17:41:32.220Z,4.60
2023-01-27T17:44:06.521Z,3.67
2023-01-27T17:46:35.810Z,12.50
2023-01-27T17:49:09.595Z,9.07
2023-01-27T17:51:41.563Z,10.73
2023-01-27T17:54:21.940Z,4.13
2023-01-27T17:56:53.288Z,4.90
2023-01-27T17:59:23.325Z,5.00
2023-01-27T18:01:55.037Z,5.70
2023-01-27T18:04:26.815Z,4.97
2023-01-27T18:06:55.586Z,3.60
2023-01-27T18:09:29.739Z,4.73
2023-01-27T18:12:00.624Z,5.57
2023-01-27T18:17:23.260Z,3.30
2023-01-27T18:19:54.637Z,5.57
2023-01-27T18:22:26.129Z,5.30
2023-01-27T18:24:57.260Z,5.20
2023-01-27T18:27:29.171Z,7.40
2023-01-27T18:30:04.500Z,7.10
2023-01-27T18:32:42.613Z,4.30
2023-01-27T18:35:28.084Z,3.17
2023-01-27T18:38:00.344Z,3.33
2023-01-27T18:40:33.737Z,2.90
2023-01-27T18:43:04.051Z,3.33
2023-01-27T18:45:32.531Z,4.00
2023-01-27T18:48:01.126Z,4.50
2023-01-27T18:50:40.972Z,4.50
2023-01-27T18:53:16.331Z,3.20
2023-01-27T18:55:45.824Z,4.30
2023-01-27T18:58:18.084Z,3.43
2023-01-27T19:00:51.205Z,3.87
2023-01-27T19:03:22.428Z,3.83
2023-01-27T19:05:53.391Z,4.30
2023-01-27T19:08:23.564Z,3.33
2023-01-27T19:10:52.940Z,4.07
2023-01-27T19:13:22.121Z,2.90
2023-01-27T19:15:54.528Z,3.50
2023-01-27T19:18:26.675Z,4.57
2023-01-27T19:20:56.644Z,6.27
2023-01-27T19:23:25.303Z,6.90
2023-01-27T19:25:55.984Z,5.03
2023-01-27T19:28:29.884Z,19.73
2023-01-27T19:30:58.285Z,20.80
2023-01-27T19:33:28.653Z,17.47
2023-01-27T19:36:03.015Z,44.10
2023-01-27T19:38:31.619Z,14.73
2023-01-27T19:40:59.867Z,17.90
2023-01-27T19:43:28.347Z,10.93
2023-01-27T19:45:56.995Z,7.93
2023-01-27T19:48:26.601Z,5.23
2023-01-27T19:50:55.398Z,5.53
2023-01-27T19:53:24.984Z,4.80
2023-01-27T19:55:59.100Z,4.40
2023-01-27T19:58:29.419Z,4.67
2023-01-27T20:00:57.982Z,12.73
2023-01-27T20:03:26.921Z,9.03
2023-01-27T20:05:55.243Z,7.87
2023-01-27T20:08:25.104Z,5.53
2023-01-27T20:10:53.595Z,4.50
2023-01-27T20:13:24.068Z,6.80
2023-01-27T20:15:52.627Z,3.93
2023-01-27T20:18:23.828Z,5.23
2023-01-27T20:20:53.628Z,5.47
2023-01-27T20:23:24.714Z,8.07
2023-01-27T20:25:54.028Z,6.97
2023-01-27T20:28:23.343Z,6.30
2023-01-27T20:30:51.965Z,8.07
2023-01-27T20:33:21.294Z,10.43
2023-01-27T20:35:49.648Z,5.97
2023-01-27T20:38:18.097Z,5.07
2023-01-27T20:40:48.103Z,5.40
2023-01-27T20:43:26.549Z,3.93
2023-01-27T20:46:07.075Z,4.90
2023-01-27T20:48:35.621Z,7.27
2023-01-27T20:51:07.456Z,4.50
2023-01-27T20:53:41.840Z,14.77
2023-01-27T20:56:14.870Z,11.57
2023-01-27T20:58:50.547Z,22.37
2023-01-27T21:01:23.030Z,19.73
2023-01-27T21:03:52.446Z,14.43
2023-01-27T21:06:21.100Z,10.07
2023-01-27T21:08:49.829Z,5.30
2023-01-27T21:11:21.447Z,5.60
2023-01-27T21:13:50.364Z,3.73
2023-01-27T21:16:19.216Z,3.90
2023-01-27T21:18:47.760Z,4.10
2023-01-27T21:21:23.438Z,3.57
2023-01-27T21:23:51.948Z,4.00
2023-01-27T21:26:25.640Z,8.97
2023-01-27T21:28:54.274Z,7.50
2023-01-27T21:31:24.460Z,6.57
2023-01-27T21:33:53.286Z,5.57
2023-01-27T21:36:22.086Z,4.67
2023-01-27T21:38:53.989Z,3.83
2023-01-27T21:41:42.723Z,4.83
2023-01-27T21:44:35.147Z,4.13
2023-01-27T21:47:03.414Z,3.50
2023-01-27T21:49:31.864Z,3.77
2023-01-27T21:52:00.246Z,3.57
2023-01-27T21:54:34.499Z,3.30
2023-01-27T21:57:04.511Z,3.50
2023-01-27T21:59:34.487Z,3.30
2023-01-27T22:02:02.924Z,3.57
2023-01-27T22:04:31.310Z,4.00
2023-01-27T22:06:59.318Z,3.47
2023-01-27T22:09:27.490Z,3.60
2023-01-27T22:11:56.652Z,3.40
2023-01-27T22:14:26.925Z,3.30
2023-01-27T22:16:55.206Z,4.03
2023-01-27T22:19:23.787Z,3.90
2023-01-27T22:21:52.409Z,3.60
2023-01-27T22:24:22.543Z,3.47
2023-01-27T22:26:50.731Z,3.60
2023-01-27T22:29:19.333Z,3.70
2023-01-27T22:31:50.805Z,3.53
2023-01-27T22:34:19.267Z,4.10
2023-01-27T22:36:51.857Z,3.60
2023-01-27T22:39:20.962Z,3.47
2023-01-27T22:41:50.532Z,3.43
2023-01-27T22:44:19.759Z,4.00
2023-01-27T22:46:50.843Z,3.93
2023-01-27T22:49:19.184Z,4.13
2023-01-27T22:51:49.139Z,3.90
2023-01-27T22:54:17.361Z,3.73
2023-01-27T22:56:45.655Z,3.73
2023-01-27T22:59:15.044Z,4.10
2023-01-27T23:01:44.547Z,3.60
2023-01-27T23:04:17.002Z,4.17
2023-01-27T23:06:45.628Z,3.73
2023-01-27T23:09:14.457Z,4.10
2023-01-27T23:11:42.793Z,3.77
2023-01-27T23:14:11.082Z,3.67
2023-01-27T23:16:39.501Z,3.90
2023-01-27T23:19:08.020Z,4.07
2023-01-27T23:21:37.844Z,4.23
2023-01-27T23:24:07.691Z,4.33
2023-01-27T23:26:37.885Z,4.20
2023-01-27T23:29:22.887Z,4.00
2023-01-27T23:31:53.045Z,4.37
2023-01-27T23:34:21.905Z,4.13
2023-01-27T23:36:52.399Z,3.90
2023-01-27T23:39:23.327Z,3.83
2023-01-27T23:41:51.934Z,4.20
2023-01-27T23:44:20.639Z,4.20
2023-01-27T23:46:48.857Z,4.50
2023-01-27T23:49:17.471Z,4.20
2023-01-27T23:51:45.525Z,3.97
2023-01-27T23:54:15.176Z,4.10
2023-01-27T23:56:43.543Z,4.23
2023-01-27T23:59:13.408Z,4.23
